Sylvan Beach, Michigan
Current Conditions -  °F | °C
As of 11:55 PM on Sunday 21 Dec 2014 (Local Time) from KMKG Reporting Station
Few Clouds Few Clouds  
Wind Chill: 23°   Ceiling: Unl
Heat Index: 32°   Visibility: 7mi
Dew Point: 25°   Wind: 12mph
Humidity: 75%   Direction: 140°SE
Pressure: 30.09"   Gusts: NA
Location:  43.3707°N, 86.4217°W
Report Text: KMKG 220455Z AUTO 14010KT 7SM FEW080 00/M04 A3009 RMK AO2 SLP195 T00001039 400171006
Loading
Personal Weather Stations






























Interactive Weather Map New forecast layout! Learn more

10-Day Weather Forecast

Advertisements
Track Severe Weather on mobile